Terminal Aerodrome Forecast
Issued by NWS

Current Version | Previous Version | Text Only | Print | Product List | Glossary Off
Versions: 1 2 3 4 5 6 7 8 9 10 11 12 13 14 15 16 17 18

000
FTUS41 KPBZ 270900 AAA
TAFHLG
TAF AMD
KHLG 270908Z 2709/2806 06005KT P6SM SKC
      TEMPO 2710/2713 1SM BR=

USA.gov is the U.S. government's official web portal to all federal, state and local government web resources and services.